sensor_id;sensor_type;location;lat;lon;timestamp;temperature;humidity
14614;DHT22;7393;51.446;6.800;2023-02-28T00:00:12;1.00;99.90
14614;DHT22;7393;51.446;6.800;2023-02-28T00:02:40;1.00;99.90
14614;DHT22;7393;51.446;6.800;2023-02-28T00:05:10;0.90;99.90
14614;DHT22;7393;51.446;6.800;2023-02-28T00:07:37;0.90;99.90
14614;DHT22;7393;51.446;6.800;2023-02-28T00:10:04;0.80;99.90
14614;DHT22;7393;51.446;6.800;2023-02-28T00:12:33;0.80;99.90
14614;DHT22;7393;51.446;6.800;2023-02-28T00:15:00;0.80;99.90
14614;DHT22;7393;51.446;6.800;2023-02-28T00:17:26;0.80;99.90
14614;DHT22;7393;51.446;6.800;2023-02-28T00:19:53;0.70;99.90
14614;DHT22;7393;51.446;6.800;2023-02-28T00:22:22;0.70;99.90
14614;DHT22;7393;51.446;6.800;2023-02-28T00:24:49;0.70;99.90
14614;DHT22;7393;51.446;6.800;2023-02-28T00:27:16;0.60;99.90
14614;DHT22;7393;51.446;6.800;2023-02-28T00:29:42;0.60;99.90
14614;DHT22;7393;51.446;6.800;2023-02-28T00:32:09;0.60;99.90
14614;DHT22;7393;51.446;6.800;2023-02-28T00:34:36;0.60;99.90
14614;DHT22;7393;51.446;6.800;2023-02-28T00:37:04;0.50;99.90
14614;DHT22;7393;51.446;6.800;2023-02-28T00:39:36;0.50;99.90
14614;DHT22;7393;51.446;6.800;2023-02-28T00:42:03;0.50;99.90
14614;DHT22;7393;51.446;6.800;2023-02-28T00:44:31;0.40;99.90
14614;DHT22;7393;51.446;6.800;2023-02-28T00:46:58;0.40;99.90
14614;DHT22;7393;51.446;6.800;2023-02-28T00:49:26;0.40;99.90
14614;DHT22;7393;51.446;6.800;2023-02-28T00:51:53;0.50;1.00
14614;DHT22;7393;51.446;6.800;2023-02-28T00:54:20;0.60;1.00
14614;DHT22;7393;51.446;6.800;2023-02-28T00:56:49;0.70;1.00
14614;DHT22;7393;51.446;6.800;2023-02-28T00:59:17;0.80;1.00
14614;DHT22;7393;51.446;6.800;2023-02-28T01:01:45;0.80;1.00
14614;DHT22;7393;51.446;6.800;2023-02-28T01:04:13;0.90;1.00
14614;DHT22;7393;51.446;6.800;2023-02-28T01:06:40;0.90;99.90
14614;DHT22;7393;51.446;6.800;2023-02-28T01:09:08;0.90;99.90
14614;DHT22;7393;51.446;6.800;2023-02-28T01:11:35;0.90;99.90
14614;DHT22;7393;51.446;6.800;2023-02-28T01:14:03;0.90;99.90
14614;DHT22;7393;51.446;6.800;2023-02-28T01:16:30;1.00;99.90
14614;DHT22;7393;51.446;6.800;2023-02-28T01:18:57;0.90;99.90
14614;DHT22;7393;51.446;6.800;2023-02-28T01:21:24;1.00;99.90
14614;DHT22;7393;51.446;6.800;2023-02-28T01:23:51;1.00;99.90
14614;DHT22;7393;51.446;6.800;2023-02-28T01:26:20;0.90;99.90
14614;DHT22;7393;51.446;6.800;2023-02-28T01:28:47;0.90;99.90
14614;DHT22;7393;51.446;6.800;2023-02-28T01:31:16;0.80;99.90
14614;DHT22;7393;51.446;6.800;2023-02-28T01:33:44;0.80;99.90
14614;DHT22;7393;51.446;6.800;2023-02-28T01:36:13;0.80;99.90
14614;DHT22;7393;51.446;6.800;2023-02-28T01:38:41;0.90;99.90
14614;DHT22;7393;51.446;6.800;2023-02-28T01:41:08;0.90;99.90
14614;DHT22;7393;51.446;6.800;2023-02-28T01:43:55;0.90;99.90
14614;DHT22;7393;51.446;6.800;2023-02-28T01:46:24;0.90;99.90
14614;DHT22;7393;51.446;6.800;2023-02-28T01:48:54;0.90;99.90
14614;DHT22;7393;51.446;6.800;2023-02-28T01:51:26;0.90;99.90
14614;DHT22;7393;51.446;6.800;2023-02-28T01:53:57;0.80;99.90
14614;DHT22;7393;51.446;6.800;2023-02-28T01:56:29;0.70;99.90
14614;DHT22;7393;51.446;6.800;2023-02-28T01:58:56;0.70;99.90
14614;DHT22;7393;51.446;6.800;2023-02-28T02:01:27;0.70;99.90
14614;DHT22;7393;51.446;6.800;2023-02-28T02:03:55;0.60;99.90
14614;DHT22;7393;51.446;6.800;2023-02-28T02:06:23;0.60;99.90
14614;DHT22;7393;51.446;6.800;2023-02-28T02:08:51;0.60;99.90
14614;DHT22;7393;51.446;6.800;2023-02-28T02:11:20;0.60;99.90
14614;DHT22;7393;51.446;6.800;2023-02-28T02:16:53;0.50;99.90
14614;DHT22;7393;51.446;6.800;2023-02-28T02:19:46;0.40;99.90
14614;DHT22;7393;51.446;6.800;2023-02-28T02:22:39;0.40;99.90
14614;DHT22;7393;51.446;6.800;2023-02-28T02:25:18;0.40;99.90
14614;DHT22;7393;51.446;6.800;2023-02-28T02:28:05;0.30;99.90
14614;DHT22;7393;51.446;6.800;2023-02-28T02:30:51;0.30;99.90
14614;DHT22;7393;51.446;6.800;2023-02-28T02:36:24;0.30;99.90
14614;DHT22;7393;51.446;6.800;2023-02-28T02:38:55;0.20;99.90
14614;DHT22;7393;51.446;6.800;2023-02-28T02:41:30;0.20;99.90
14614;DHT22;7393;51.446;6.800;2023-02-28T02:44:03;0.20;99.90
14614;DHT22;7393;51.446;6.800;2023-02-28T02:46:33;0.20;99.90
14614;DHT22;7393;51.446;6.800;2023-02-28T02:49:03;0.20;99.90
14614;DHT22;7393;51.446;6.800;2023-02-28T02:51:34;0.10;99.90
14614;DHT22;7393;51.446;6.800;2023-02-28T02:54:04;0.10;99.90
14614;DHT22;7393;51.446;6.800;2023-02-28T02:56:33;0.00;99.90
14614;DHT22;7393;51.446;6.800;2023-02-28T02:59:03;0.00;99.90
14614;DHT22;7393;51.446;6.800;2023-02-28T03:01:32;0.00;99.90
14614;DHT22;7393;51.446;6.800;2023-02-28T03:04:08;-0.10;99.90
14614;DHT22;7393;51.446;6.800;2023-02-28T03:06:36;-0.10;99.90
14614;DHT22;7393;51.446;6.800;2023-02-28T03:09:04;-0.20;99.90
14614;DHT22;7393;51.446;6.800;2023-02-28T03:11:31;-0.30;99.90
14614;DHT22;7393;51.446;6.800;2023-02-28T03:14:14;-0.30;99.90
14614;DHT22;7393;51.446;6.800;2023-02-28T03:17:00;-0.30;99.90
14614;DHT22;7393;51.446;6.800;2023-02-28T03:19:45;-0.40;1.00
14614;DHT22;7393;51.446;6.800;2023-02-28T03:22:29;-0.40;1.00
14614;DHT22;7393;51.446;6.800;2023-02-28T03:25:04;-0.40;1.00
14614;DHT22;7393;51.446;6.800;2023-02-28T03:27:38;-0.50;1.00
14614;DHT22;7393;51.446;6.800;2023-02-28T03:30:09;-0.50;1.00
14614;DHT22;7393;51.446;6.800;2023-02-28T03:32:40;-0.50;1.00
14614;DHT22;7393;51.446;6.800;2023-02-28T03:35:12;-0.50;1.00
14614;DHT22;7393;51.446;6.800;2023-02-28T03:37:43;-0.50;1.00
14614;DHT22;7393;51.446;6.800;2023-02-28T03:40:13;-0.50;1.00
14614;DHT22;7393;51.446;6.800;2023-02-28T03:42:46;-0.60;1.00
14614;DHT22;7393;51.446;6.800;2023-02-28T03:45:17;-0.60;1.00
14614;DHT22;7393;51.446;6.800;2023-02-28T03:47:49;-0.70;1.00
14614;DHT22;7393;51.446;6.800;2023-02-28T03:50:21;-0.70;1.00
14614;DHT22;7393;51.446;6.800;2023-02-28T03:52:54;-0.70;1.00
14614;DHT22;7393;51.446;6.800;2023-02-28T03:55:28;-0.70;1.00
14614;DHT22;7393;51.446;6.800;2023-02-28T03:58:01;-0.80;1.00
14614;DHT22;7393;51.446;6.800;2023-02-28T04:00:31;-0.80;1.00
14614;DHT22;7393;51.446;6.800;2023-02-28T04:02:59;-0.80;1.00
14614;DHT22;7393;51.446;6.800;2023-02-28T04:05:27;-0.80;1.00
14614;DHT22;7393;51.446;6.800;2023-02-28T04:08:03;-0.80;1.00
14614;DHT22;7393;51.446;6.800;2023-02-28T04:10:30;-0.80;1.00
14614;DHT22;7393;51.446;6.800;2023-02-28T04:12:57;-0.80;1.00
14614;DHT22;7393;51.446;6.800;2023-02-28T04:15:24;-0.90;1.00
14614;DHT22;7393;51.446;6.800;2023-02-28T04:17:52;-0.90;1.00
14614;DHT22;7393;51.446;6.800;2023-02-28T04:20:19;-0.90;1.00
14614;DHT22;7393;51.446;6.800;2023-02-28T04:22:46;-0.90;1.00
14614;DHT22;7393;51.446;6.800;2023-02-28T04:25:14;-1.00;1.00
14614;DHT22;7393;51.446;6.800;2023-02-28T04:27:41;-1.00;1.00
14614;DHT22;7393;51.446;6.800;2023-02-28T04:30:10;-1.00;1.00
14614;DHT22;7393;51.446;6.800;2023-02-28T04:32:37;-1.10;1.00
14614;DHT22;7393;51.446;6.800;2023-02-28T04:35:05;-1.10;1.00
14614;DHT22;7393;51.446;6.800;2023-02-28T04:37:32;-1.10;1.00
14614;DHT22;7393;51.446;6.800;2023-02-28T04:40:00;-1.10;1.00
14614;DHT22;7393;51.446;6.800;2023-02-28T04:42:28;-1.10;5.50
14614;DHT22;7393;51.446;6.800;2023-02-28T04:45:00;-1.20;4.40
14614;DHT22;7393;51.446;6.800;2023-02-28T04:47:27;-1.20;1.00
14614;DHT22;7393;51.446;6.800;2023-02-28T04:49:55;-1.20;1.00
14614;DHT22;7393;51.446;6.800;2023-02-28T04:52:22;-1.20;1.00
14614;DHT22;7393;51.446;6.800;2023-02-28T04:54:49;-1.20;1.00
14614;DHT22;7393;51.446;6.800;2023-02-28T04:57:15;-1.30;25.20
14614;DHT22;7393;51.446;6.800;2023-02-28T04:59:43;-1.30;55.10
14614;DHT22;7393;51.446;6.800;2023-02-28T05:02:10;-1.30;92.50
14614;DHT22;7393;51.446;6.800;2023-02-28T05:04:37;-1.30;99.90
14614;DHT22;7393;51.446;6.800;2023-02-28T05:07:04;-1.30;99.90
14614;DHT22;7393;51.446;6.800;2023-02-28T05:09:31;-1.40;99.90
14614;DHT22;7393;51.446;6.800;2023-02-28T05:11:58;-1.40;99.90
14614;DHT22;7393;51.446;6.800;2023-02-28T05:14:25;-1.40;99.90
14614;DHT22;7393;51.446;6.800;2023-02-28T05:16:53;-1.40;99.90
14614;DHT22;7393;51.446;6.800;2023-02-28T05:19:20;-1.40;99.90
14614;DHT22;7393;51.446;6.800;2023-02-28T05:21:52;-1.40;99.90
14614;DHT22;7393;51.446;6.800;2023-02-28T05:24:19;-1.40;99.90
14614;DHT22;7393;51.446;6.800;2023-02-28T05:26:49;-1.50;99.90
14614;DHT22;7393;51.446;6.800;2023-02-28T05:29:17;-1.50;99.90
14614;DHT22;7393;51.446;6.800;2023-02-28T05:31:44;-1.50;99.90
14614;DHT22;7393;51.446;6.800;2023-02-28T05:34:12;-1.50;99.90
14614;DHT22;7393;51.446;6.800;2023-02-28T05:36:41;-1.60;99.90
14614;DHT22;7393;51.446;6.800;2023-02-28T05:39:08;-1.50;99.90
14614;DHT22;7393;51.446;6.800;2023-02-28T05:41:39;-1.60;99.90
14614;DHT22;7393;51.446;6.800;2023-02-28T05:44:05;-1.60;99.90
14614;DHT22;7393;51.446;6.800;2023-02-28T05:46:32;-1.60;99.90
14614;DHT22;7393;51.446;6.800;2023-02-28T05:48:59;-1.60;99.90
14614;DHT22;7393;51.446;6.800;2023-02-28T05:51:27;-1.60;99.90
14614;DHT22;7393;51.446;6.800;2023-02-28T05:53:54;-1.70;99.90
14614;DHT22;7393;51.446;6.800;2023-02-28T05:56:24;-1.60;99.90
14614;DHT22;7393;51.446;6.800;2023-02-28T05:58:51;-1.60;99.90
14614;DHT22;7393;51.446;6.800;2023-02-28T06:01:23;-1.70;99.90
14614;DHT22;7393;51.446;6.800;2023-02-28T06:03:50;-1.70;99.90
14614;DHT22;7393;51.446;6.800;2023-02-28T06:06:17;-1.70;99.90
14614;DHT22;7393;51.446;6.800;2023-02-28T06:08:45;-1.70;99.90
14614;DHT22;7393;51.446;6.800;2023-02-28T06:11:12;-1.70;99.90
14614;DHT22;7393;51.446;6.800;2023-02-28T06:13:39;-1.80;99.90
14614;DHT22;7393;51.446;6.800;2023-02-28T06:16:07;-1.80;99.90
14614;DHT22;7393;51.446;6.800;2023-02-28T06:18:34;-1.70;99.90
14614;DHT22;7393;51.446;6.800;2023-02-28T06:21:01;-1.70;99.90
14614;DHT22;7393;51.446;6.800;2023-02-28T06:23:28;-1.70;99.90
14614;DHT22;7393;51.446;6.800;2023-02-28T06:25:56;-1.70;99.90
14614;DHT22;7393;51.446;6.800;2023-02-28T06:28:24;-1.70;99.90
14614;DHT22;7393;51.446;6.800;2023-02-28T06:30:51;-1.70;99.90
14614;DHT22;7393;51.446;6.800;2023-02-28T06:33:18;-1.70;99.90
14614;DHT22;7393;51.446;6.800;2023-02-28T06:35:46;-1.70;99.90
14614;DHT22;7393;51.446;6.800;2023-02-28T06:38:13;-1.60;99.90
14614;DHT22;7393;51.446;6.800;2023-02-28T06:40:40;-1.60;99.90
14614;DHT22;7393;51.446;6.800;2023-02-28T06:43:08;-1.60;99.90
14614;DHT22;7393;51.446;6.800;2023-02-28T06:45:41;-1.60;99.90
14614;DHT22;7393;51.446;6.800;2023-02-28T06:48:09;-1.60;99.90
14614;DHT22;7393;51.446;6.800;2023-02-28T06:50:36;-1.60;85.30
14614;DHT22;7393;51.446;6.800;2023-02-28T06:53:03;-1.50;27.60
14614;DHT22;7393;51.446;6.800;2023-02-28T06:55:30;-1.50;17.60
14614;DHT22;7393;51.446;6.800;2023-02-28T06:57:57;-1.50;1.30
14614;DHT22;7393;51.446;6.800;2023-02-28T07:00:25;-1.40;1.00
14614;DHT22;7393;51.446;6.800;2023-02-28T07:02:52;-1.40;1.00
14614;DHT22;7393;51.446;6.800;2023-02-28T07:05:20;-1.40;1.00
14614;DHT22;7393;51.446;6.800;2023-02-28T07:07:47;-1.30;1.00
14614;DHT22;7393;51.446;6.800;2023-02-28T07:10:14;-1.30;1.00
14614;DHT22;7393;51.446;6.800;2023-02-28T07:12:42;-1.20;1.00
14614;DHT22;7393;51.446;6.800;2023-02-28T07:15:10;-1.10;1.00
14614;DHT22;7393;51.446;6.800;2023-02-28T07:17:38;-1.10;1.00
14614;DHT22;7393;51.446;6.800;2023-02-28T07:20:06;-1.00;1.00
14614;DHT22;7393;51.446;6.800;2023-02-28T07:22:33;-1.00;1.00
14614;DHT22;7393;51.446;6.800;2023-02-28T07:24:59;-0.90;1.00
14614;DHT22;7393;51.446;6.800;2023-02-28T07:27:26;-0.80;1.00
14614;DHT22;7393;51.446;6.800;2023-02-28T07:29:53;-0.80;1.00
14614;DHT22;7393;51.446;6.800;2023-02-28T07:32:20;-0.80;1.00
14614;DHT22;7393;51.446;6.800;2023-02-28T07:34:48;-0.70;1.00
14614;DHT22;7393;51.446;6.800;2023-02-28T07:37:15;-0.70;1.00
14614;DHT22;7393;51.446;6.800;2023-02-28T07:39:42;-0.60;1.00
14614;DHT22;7393;51.446;6.800;2023-02-28T07:42:08;-0.60;1.00
14614;DHT22;7393;51.446;6.800;2023-02-28T07:44:37;-0.50;1.00
14614;DHT22;7393;51.446;6.800;2023-02-28T07:47:06;-0.50;1.00
14614;DHT22;7393;51.446;6.800;2023-02-28T07:49:34;-0.40;99.90
14614;DHT22;7393;51.446;6.800;2023-02-28T07:52:02;-0.40;99.90
14614;DHT22;7393;51.446;6.800;2023-02-28T07:54:29;-0.40;99.90
14614;DHT22;7393;51.446;6.800;2023-02-28T07:56:56;-0.40;1.00
14614;DHT22;7393;51.446;6.800;2023-02-28T07:59:23;-0.30;99.90
14614;DHT22;7393;51.446;6.800;2023-02-28T08:01:50;-0.30;99.90
14614;DHT22;7393;51.446;6.800;2023-02-28T08:04:17;-0.30;99.90
14614;DHT22;7393;51.446;6.800;2023-02-28T08:06:44;-0.20;99.90
14614;DHT22;7393;51.446;6.800;2023-02-28T08:09:12;-0.20;99.90
14614;DHT22;7393;51.446;6.800;2023-02-28T08:11:39;-0.10;99.90
14614;DHT22;7393;51.446;6.800;2023-02-28T08:14:06;-0.10;99.90
14614;DHT22;7393;51.446;6.800;2023-02-28T08:16:33;0.00;99.90
14614;DHT22;7393;51.446;6.800;2023-02-28T08:19:00;0.10;99.90
14614;DHT22;7393;51.446;6.800;2023-02-28T08:21:27;0.20;99.90
14614;DHT22;7393;51.446;6.800;2023-02-28T08:23:53;0.30;99.90
14614;DHT22;7393;51.446;6.800;2023-02-28T08:26:23;0.40;99.90
14614;DHT22;7393;51.446;6.800;2023-02-28T08:28:50;0.60;99.90
14614;DHT22;7393;51.446;6.800;2023-02-28T08:31:17;0.70;99.90
14614;DHT22;7393;51.446;6.800;2023-02-28T08:33:45;0.90;99.90
14614;DHT22;7393;51.446;6.800;2023-02-28T08:36:14;1.00;99.90
14614;DHT22;7393;51.446;6.800;2023-02-28T08:38:41;1.10;99.90
14614;DHT22;7393;51.446;6.800;2023-02-28T08:41:11;1.20;99.90
14614;DHT22;7393;51.446;6.800;2023-02-28T08:43:40;1.30;99.90
14614;DHT22;7393;51.446;6.800;2023-02-28T08:46:08;1.40;99.90
14614;DHT22;7393;51.446;6.800;2023-02-28T08:48:37;1.60;99.90
14614;DHT22;7393;51.446;6.800;2023-02-28T08:51:05;1.70;99.90
14614;DHT22;7393;51.446;6.800;2023-02-28T08:53:32;1.80;99.90
14614;DHT22;7393;51.446;6.800;2023-02-28T08:56:01;1.90;95.60
14614;DHT22;7393;51.446;6.800;2023-02-28T08:58:28;2.00;82.10
14614;DHT22;7393;51.446;6.800;2023-02-28T09:00:57;2.10;62.90
14614;DHT22;7393;51.446;6.800;2023-02-28T09:03:24;2.20;61.50
14614;DHT22;7393;51.446;6.800;2023-02-28T09:05:53;2.30;57.50
14614;DHT22;7393;51.446;6.800;2023-02-28T09:08:21;2.40;29.70
14614;DHT22;7393;51.446;6.800;2023-02-28T09:10:48;2.50;1.00
14614;DHT22;7393;51.446;6.800;2023-02-28T09:13:14;2.60;1.00
14614;DHT22;7393;51.446;6.800;2023-02-28T09:15:41;2.70;1.00
14614;DHT22;7393;51.446;6.800;2023-02-28T09:18:09;2.80;1.00
14614;DHT22;7393;51.446;6.800;2023-02-28T09:20:37;2.90;1.00
14614;DHT22;7393;51.446;6.800;2023-02-28T09:23:05;3.00;1.00
14614;DHT22;7393;51.446;6.800;2023-02-28T09:25:31;3.10;1.00
14614;DHT22;7393;51.446;6.800;2023-02-28T09:27:58;3.20;1.00
14614;DHT22;7393;51.446;6.800;2023-02-28T09:30:25;3.30;1.00
14614;DHT22;7393;51.446;6.800;2023-02-28T09:32:52;3.40;1.00
14614;DHT22;7393;51.446;6.800;2023-02-28T09:35:20;3.50;1.00
14614;DHT22;7393;51.446;6.800;2023-02-28T09:37:48;3.60;1.00
14614;DHT22;7393;51.446;6.800;2023-02-28T09:40:15;3.70;1.00
14614;DHT22;7393;51.446;6.800;2023-02-28T09:42:45;3.80;1.00
14614;DHT22;7393;51.446;6.800;2023-02-28T09:45:24;3.90;1.00
14614;DHT22;7393;51.446;6.800;2023-02-28T09:47:55;4.00;1.00
14614;DHT22;7393;51.446;6.800;2023-02-28T09:50:30;4.10;1.00
14614;DHT22;7393;51.446;6.800;2023-02-28T09:52:59;4.20;1.00
14614;DHT22;7393;51.446;6.800;2023-02-28T09:55:31;4.30;1.00
14614;DHT22;7393;51.446;6.800;2023-02-28T09:58:00;4.40;1.00
14614;DHT22;7393;51.446;6.800;2023-02-28T10:00:32;4.50;1.00
14614;DHT22;7393;51.446;6.800;2023-02-28T10:03:06;4.50;1.00
14614;DHT22;7393;51.446;6.800;2023-02-28T10:05:40;4.60;1.00
14614;DHT22;7393;51.446;6.800;2023-02-28T10:08:13;4.60;1.00
14614;DHT22;7393;51.446;6.800;2023-02-28T10:10:42;4.60;1.00
14614;DHT22;7393;51.446;6.800;2023-02-28T10:13:17;4.50;1.00
14614;DHT22;7393;51.446;6.800;2023-02-28T10:15:50;4.40;1.00
14614;DHT22;7393;51.446;6.800;2023-02-28T10:18:22;4.30;1.00
14614;DHT22;7393;51.446;6.800;2023-02-28T10:20:53;4.20;1.00
14614;DHT22;7393;51.446;6.800;2023-02-28T10:23:24;4.20;1.00
14614;DHT22;7393;51.446;6.800;2023-02-28T10:25:55;4.30;1.00
14614;DHT22;7393;51.446;6.800;2023-02-28T10:28:25;4.30;1.00
14614;DHT22;7393;51.446;6.800;2023-02-28T10:30:53;4.40;1.00
14614;DHT22;7393;51.446;6.800;2023-02-28T10:33:23;4.30;1.00
14614;DHT22;7393;51.446;6.800;2023-02-28T10:35:51;4.20;1.00
14614;DHT22;7393;51.446;6.800;2023-02-28T10:38:21;4.20;1.00
14614;DHT22;7393;51.446;6.800;2023-02-28T10:40:48;4.20;1.00
14614;DHT22;7393;51.446;6.800;2023-02-28T10:43:20;4.20;1.00
14614;DHT22;7393;51.446;6.800;2023-02-28T10:45:57;4.30;1.00
14614;DHT22;7393;51.446;6.800;2023-02-28T10:48:29;4.40;1.00
14614;DHT22;7393;51.446;6.800;2023-02-28T10:50:58;4.60;1.00
14614;DHT22;7393;51.446;6.800;2023-02-28T10:53:47;4.70;1.00
14614;DHT22;7393;51.446;6.800;2023-02-28T10:56:17;4.90;1.00
14614;DHT22;7393;51.446;6.800;2023-02-28T10:58:53;5.00;1.00
14614;DHT22;7393;51.446;6.800;2023-02-28T11:01:22;5.10;1.00
14614;DHT22;7393;51.446;6.800;2023-02-28T11:03:50;5.20;1.00
14614;DHT22;7393;51.446;6.800;2023-02-28T11:06:21;5.20;1.00
14614;DHT22;7393;51.446;6.800;2023-02-28T11:08:51;5.10;1.00
14614;DHT22;7393;51.446;6.800;2023-02-28T11:11:18;5.10;1.00
14614;DHT22;7393;51.446;6.800;2023-02-28T11:13:47;5.10;1.00
14614;DHT22;7393;51.446;6.800;2023-02-28T11:16:15;5.00;1.00
14614;DHT22;7393;51.446;6.800;2023-02-28T11:18:47;5.00;1.00
14614;DHT22;7393;51.446;6.800;2023-02-28T11:21:25;5.00;1.00
14614;DHT22;7393;51.446;6.800;2023-02-28T11:23:59;5.10;1.00
14614;DHT22;7393;51.446;6.800;2023-02-28T11:26:39;5.20;1.00
14614;DHT22;7393;51.446;6.800;2023-02-28T11:29:19;5.40;1.00
14614;DHT22;7393;51.446;6.800;2023-02-28T11:32:03;5.60;1.00
14614;DHT22;7393;51.446;6.800;2023-02-28T11:34:31;5.70;1.00
14614;DHT22;7393;51.446;6.800;2023-02-28T11:37:01;5.90;1.00
14614;DHT22;7393;51.446;6.800;2023-02-28T11:39:30;5.90;1.00
14614;DHT22;7393;51.446;6.800;2023-02-28T11:42:27;6.00;1.00
14614;DHT22;7393;51.446;6.800;2023-02-28T11:45:22;6.10;1.00
14614;DHT22;7393;51.446;6.800;2023-02-28T11:47:56;6.20;1.00
14614;DHT22;7393;51.446;6.800;2023-02-28T11:50:44;6.30;1.00
14614;DHT22;7393;51.446;6.800;2023-02-28T11:53:22;6.30;1.00
14614;DHT22;7393;51.446;6.800;2023-02-28T11:55:53;6.40;1.00
14614;DHT22;7393;51.446;6.800;2023-02-28T11:58:29;6.40;1.00
14614;DHT22;7393;51.446;6.800;2023-02-28T12:01:13;6.50;1.00
14614;DHT22;7393;51.446;6.800;2023-02-28T12:03:47;6.60;1.00
14614;DHT22;7393;51.446;6.800;2023-02-28T12:06:22;6.80;1.00
14614;DHT22;7393;51.446;6.800;2023-02-28T12:09:02;7.00;1.00
14614;DHT22;7393;51.446;6.800;2023-02-28T12:11:40;7.30;1.00
14614;DHT22;7393;51.446;6.800;2023-02-28T12:14:42;7.50;1.00
14614;DHT22;7393;51.446;6.800;2023-02-28T12:17:20;7.60;1.00
14614;DHT22;7393;51.446;6.800;2023-02-28T12:19:53;7.70;1.00
14614;DHT22;7393;51.446;6.800;2023-02-28T12:22:30;7.70;1.00
14614;DHT22;7393;51.446;6.800;2023-02-28T12:25:24;7.80;1.00
14614;DHT22;7393;51.446;6.800;2023-02-28T12:27:57;7.80;1.00
14614;DHT22;7393;51.446;6.800;2023-02-28T12:30:27;7.90;1.00
14614;DHT22;7393;51.446;6.800;2023-02-28T12:32:57;7.90;1.00
14614;DHT22;7393;51.446;6.800;2023-02-28T12:35:33;8.10;1.00
14614;DHT22;7393;51.446;6.800;2023-02-28T12:38:04;8.20;1.00
14614;DHT22;7393;51.446;6.800;2023-02-28T12:40:45;8.30;1.00
14614;DHT22;7393;51.446;6.800;2023-02-28T12:43:16;8.50;1.00
14614;DHT22;7393;51.446;6.800;2023-02-28T12:45:46;8.60;1.00
14614;DHT22;7393;51.446;6.800;2023-02-28T12:48:18;8.60;1.00
14614;DHT22;7393;51.446;6.800;2023-02-28T12:50:47;8.70;1.00
14614;DHT22;7393;51.446;6.800;2023-02-28T12:53:22;8.70;1.00
14614;DHT22;7393;51.446;6.800;2023-02-28T12:56:00;8.70;1.00
14614;DHT22;7393;51.446;6.800;2023-02-28T12:58:33;8.80;1.00
14614;DHT22;7393;51.446;6.800;2023-02-28T13:01:20;8.80;1.00
14614;DHT22;7393;51.446;6.800;2023-02-28T13:04:12;8.80;1.00
14614;DHT22;7393;51.446;6.800;2023-02-28T13:06:56;8.70;1.00
14614;DHT22;7393;51.446;6.800;2023-02-28T13:09:25;8.80;1.00
14614;DHT22;7393;51.446;6.800;2023-02-28T13:11:56;8.90;1.00
14614;DHT22;7393;51.446;6.800;2023-02-28T13:14:26;9.00;1.00
14614;DHT22;7393;51.446;6.800;2023-02-28T13:17:03;9.00;1.00
14614;DHT22;7393;51.446;6.800;2023-02-28T13:19:38;9.10;1.00
14614;DHT22;7393;51.446;6.800;2023-02-28T13:22:16;9.30;1.00
14614;DHT22;7393;51.446;6.800;2023-02-28T13:24:49;9.40;1.00
14614;DHT22;7393;51.446;6.800;2023-02-28T13:27:37;9.40;1.00
14614;DHT22;7393;51.446;6.800;2023-02-28T13:33:32;9.30;1.00
14614;DHT22;7393;51.446;6.800;2023-02-28T13:38:51;9.40;1.00
14614;DHT22;7393;51.446;6.800;2023-02-28T13:41:43;9.40;1.00
14614;DHT22;7393;51.446;6.800;2023-02-28T13:44:12;9.40;1.00
14614;DHT22;7393;51.446;6.800;2023-02-28T13:49:52;9.40;1.00
14614;DHT22;7393;51.446;6.800;2023-02-28T13:52:22;9.40;1.00
14614;DHT22;7393;51.446;6.800;2023-02-28T13:54:58;9.50;1.00
14614;DHT22;7393;51.446;6.800;2023-02-28T13:57:38;9.40;1.00
14614;DHT22;7393;51.446;6.800;2023-02-28T14:00:20;9.50;1.00
14614;DHT22;7393;51.446;6.800;2023-02-28T14:03:09;9.50;1.00
14614;DHT22;7393;51.446;6.800;2023-02-28T14:05:38;9.50;1.00
14614;DHT22;7393;51.446;6.800;2023-02-28T14:08:10;9.40;1.00
14614;DHT22;7393;51.446;6.800;2023-02-28T14:10:44;9.50;1.00
14614;DHT22;7393;51.446;6.800;2023-02-28T14:16:04;9.50;1.00
14614;DHT22;7393;51.446;6.800;2023-02-28T14:18:33;9.50;1.00
14614;DHT22;7393;51.446;6.800;2023-02-28T14:21:11;9.40;1.00
14614;DHT22;7393;51.446;6.800;2023-02-28T14:26:57;9.40;1.00
14614;DHT22;7393;51.446;6.800;2023-02-28T14:29:37;9.30;1.00
14614;DHT22;7393;51.446;6.800;2023-02-28T14:32:15;9.20;1.00
14614;DHT22;7393;51.446;6.800;2023-02-28T14:34:52;9.20;1.00
14614;DHT22;7393;51.446;6.800;2023-02-28T14:37:27;9.20;1.00
14614;DHT22;7393;51.446;6.800;2023-02-28T14:39:54;9.10;1.00
14614;DHT22;7393;51.446;6.800;2023-02-28T14:42:28;9.10;1.00
14614;DHT22;7393;51.446;6.800;2023-02-28T14:44:56;9.00;1.00
14614;DHT22;7393;51.446;6.800;2023-02-28T14:47:27;8.90;1.00
14614;DHT22;7393;51.446;6.800;2023-02-28T14:49:54;8.80;1.00
14614;DHT22;7393;51.446;6.800;2023-02-28T14:52:22;8.80;1.00
14614;DHT22;7393;51.446;6.800;2023-02-28T14:54:52;8.70;1.00
14614;DHT22;7393;51.446;6.800;2023-02-28T14:57:22;8.70;1.00
14614;DHT22;7393;51.446;6.800;2023-02-28T14:59:57;8.50;1.00
14614;DHT22;7393;51.446;6.800;2023-02-28T15:02:29;8.30;1.00
14614;DHT22;7393;51.446;6.800;2023-02-28T15:04:57;8.20;1.00
14614;DHT22;7393;51.446;6.800;2023-02-28T15:07:25;8.10;1.00
14614;DHT22;7393;51.446;6.800;2023-02-28T15:10:19;8.10;1.00
14614;DHT22;7393;51.446;6.800;2023-02-28T15:12:52;8.10;1.00
14614;DHT22;7393;51.446;6.800;2023-02-28T15:15:22;8.00;1.00
14614;DHT22;7393;51.446;6.800;2023-02-28T15:17:54;8.00;1.00
14614;DHT22;7393;51.446;6.800;2023-02-28T15:20:23;7.90;1.00
14614;DHT22;7393;51.446;6.800;2023-02-28T15:22:52;7.80;1.00
14614;DHT22;7393;51.446;6.800;2023-02-28T15:25:22;7.70;1.00
14614;DHT22;7393;51.446;6.800;2023-02-28T15:27:51;7.50;1.00
14614;DHT22;7393;51.446;6.800;2023-02-28T15:30:21;7.50;1.00
14614;DHT22;7393;51.446;6.800;2023-02-28T15:33:05;7.50;1.00
14614;DHT22;7393;51.446;6.800;2023-02-28T15:35:34;7.40;1.00
14614;DHT22;7393;51.446;6.800;2023-02-28T15:38:02;7.40;1.00
14614;DHT22;7393;51.446;6.800;2023-02-28T15:40:32;7.30;1.00
14614;DHT22;7393;51.446;6.800;2023-02-28T15:43:11;7.20;1.00
14614;DHT22;7393;51.446;6.800;2023-02-28T15:45:43;7.20;1.00
14614;DHT22;7393;51.446;6.800;2023-02-28T15:48:19;7.20;1.00
14614;DHT22;7393;51.446;6.800;2023-02-28T15:50:49;7.10;1.00
14614;DHT22;7393;51.446;6.800;2023-02-28T15:53:18;7.10;1.00
14614;DHT22;7393;51.446;6.800;2023-02-28T15:55:53;7.10;1.00
14614;DHT22;7393;51.446;6.800;2023-02-28T15:58:22;7.00;1.00
14614;DHT22;7393;51.446;6.800;2023-02-28T16:01:01;6.90;1.00
14614;DHT22;7393;51.446;6.800;2023-02-28T16:03:39;6.80;1.00
14614;DHT22;7393;51.446;6.800;2023-02-28T16:06:33;6.70;1.00
14614;DHT22;7393;51.446;6.800;2023-02-28T16:09:00;6.70;1.00
14614;DHT22;7393;51.446;6.800;2023-02-28T16:11:27;6.70;1.00
14614;DHT22;7393;51.446;6.800;2023-02-28T16:13:54;6.70;1.00
14614;DHT22;7393;51.446;6.800;2023-02-28T16:16:24;6.70;1.00
14614;DHT22;7393;51.446;6.800;2023-02-28T16:18:52;6.60;1.00
14614;DHT22;7393;51.446;6.800;2023-02-28T16:21:20;6.50;1.00
14614;DHT22;7393;51.446;6.800;2023-02-28T16:23:46;6.40;1.00
14614;DHT22;7393;51.446;6.800;2023-02-28T16:26:19;6.40;1.00
14614;DHT22;7393;51.446;6.800;2023-02-28T16:28:47;6.30;1.00
14614;DHT22;7393;51.446;6.800;2023-02-28T16:31:14;6.40;1.00
14614;DHT22;7393;51.446;6.800;2023-02-28T16:33:42;6.30;1.00
14614;DHT22;7393;51.446;6.800;2023-02-28T16:36:13;6.30;1.00
14614;DHT22;7393;51.446;6.800;2023-02-28T16:38:40;6.30;1.00
14614;DHT22;7393;51.446;6.800;2023-02-28T16:41:12;6.10;1.00
14614;DHT22;7393;51.446;6.800;2023-02-28T16:43:42;6.10;1.00
14614;DHT22;7393;51.446;6.800;2023-02-28T16:46:11;6.00;1.00
14614;DHT22;7393;51.446;6.800;2023-02-28T16:48:38;5.90;1.00
14614;DHT22;7393;51.446;6.800;2023-02-28T16:51:06;5.90;1.00